createdAt,value
2019-05-21T00:01:31.731Z,12.04
2019-05-21T00:03:58.039Z,12.01
2019-05-21T00:06:24.359Z,12.03
2019-05-21T00:08:50.696Z,12.11
2019-05-21T00:11:17.003Z,12.08
2019-05-21T00:13:43.336Z,12.16
2019-05-21T00:16:09.659Z,12.11
2019-05-21T00:18:35.961Z,11.94
2019-05-21T00:21:02.302Z,11.91
2019-05-21T00:23:28.601Z,11.80
2019-05-21T00:25:54.914Z,11.64
2019-05-21T00:28:21.246Z,11.68
2019-05-21T00:30:47.566Z,11.70
2019-05-21T00:33:13.891Z,11.60
2019-05-21T00:35:40.199Z,11.67
2019-05-21T00:38:06.524Z,11.60
2019-05-21T00:40:32.839Z,11.49
2019-05-21T00:42:59.175Z,11.28
2019-05-21T00:45:25.503Z,11.25
2019-05-21T00:47:51.824Z,11.26
2019-05-21T00:50:18.168Z,11.30
2019-05-21T00:52:44.511Z,11.34
2019-05-21T00:55:10.826Z,11.26
2019-05-21T00:57:37.154Z,11.22
2019-05-21T01:00:03.608Z,11.22
2019-05-21T01:02:29.823Z,11.22
2019-05-21T01:05:00.785Z,11.23
2019-05-21T01:07:22.474Z,11.21
2019-05-21T01:09:48.802Z,11.23
2019-05-21T01:12:15.116Z,11.18
2019-05-21T01:14:41.446Z,11.06
2019-05-21T01:17:07.764Z,11.24
2019-05-21T01:19:34.101Z,11.48
2019-05-21T01:22:00.510Z,11.34
2019-05-21T01:24:26.715Z,11.13
2019-05-21T01:26:53.046Z,11.11
2019-05-21T01:29:19.359Z,11.26
2019-05-21T01:31:45.693Z,11.09
2019-05-21T01:34:12.018Z,11.10
2019-05-21T01:36:38.328Z,11.01
2019-05-21T01:39:04.661Z,11.00
2019-05-21T01:41:30.973Z,10.90
2019-05-21T01:43:57.282Z,10.90
2019-05-21T01:46:23.621Z,10.85
2019-05-21T01:48:49.929Z,10.80
2019-05-21T01:51:16.266Z,10.99
2019-05-21T01:53:42.575Z,11.11
2019-05-21T01:56:08.899Z,11.14
2019-05-21T01:58:35.212Z,11.24
2019-05-21T02:01:01.759Z,11.05
2019-05-21T02:03:27.868Z,10.87
2019-05-21T02:05:54.181Z,10.89
2019-05-21T02:08:20.526Z,11.05
2019-05-21T02:10:46.832Z,11.00
2019-05-21T02:13:13.163Z,10.92
2019-05-21T02:15:39.485Z,10.92
2019-05-21T02:18:05.821Z,10.95
2019-05-21T02:20:32.127Z,11.07
2019-05-21T02:22:58.441Z,11.20
2019-05-21T02:25:24.766Z,11.11
2019-05-21T02:27:51.077Z,11.05
2019-05-21T02:30:17.405Z,10.88
2019-05-21T02:32:43.717Z,10.95
2019-05-21T02:35:10.044Z,10.86
2019-05-21T02:37:36.435Z,10.79
2019-05-21T02:40:02.716Z,11.12
2019-05-21T02:42:29.008Z,10.77
2019-05-21T02:44:55.325Z,10.49
2019-05-21T02:47:21.657Z,10.44
2019-05-21T02:49:47.955Z,10.55
2019-05-21T02:52:14.263Z,10.34
2019-05-21T02:54:41.879Z,10.37
2019-05-21T02:57:06.898Z,10.71
2019-05-21T02:59:33.234Z,10.77
2019-05-21T03:01:59.567Z,10.74
2019-05-21T03:04:25.874Z,10.89
2019-05-21T03:06:52.205Z,10.99
2019-05-21T03:09:18.508Z,11.10
2019-05-21T03:11:44.832Z,11.35
2019-05-21T03:14:11.135Z,11.16
2019-05-21T03:16:37.468Z,11.00
2019-05-21T03:19:03.775Z,10.91
2019-05-21T03:21:30.089Z,11.22
2019-05-21T03:23:56.412Z,11.38
2019-05-21T03:26:22.727Z,11.41
2019-05-21T03:28:49.063Z,11.55
2019-05-21T03:31:15.370Z,11.70
2019-05-21T03:33:41.709Z,11.67
2019-05-21T03:36:08.028Z,11.67
2019-05-21T03:38:34.343Z,11.80
2019-05-21T03:41:00.676Z,11.94
2019-05-21T03:43:26.978Z,12.00
2019-05-21T03:45:53.307Z,11.80
2019-05-21T03:48:19.605Z,11.50
2019-05-21T03:50:45.941Z,11.26
2019-05-21T03:53:12.248Z,11.02
2019-05-21T03:55:38.568Z,11.05
2019-05-21T03:58:04.889Z,11.18
2019-05-21T04:00:31.185Z,11.40
2019-05-21T04:02:57.517Z,11.43
2019-05-21T04:05:23.834Z,11.92
2019-05-21T04:07:50.168Z,12.30
2019-05-21T04:10:16.498Z,12.14
2019-05-21T04:12:42.805Z,12.08
2019-05-21T04:15:09.138Z,12.23
2019-05-21T04:17:35.448Z,12.40
2019-05-21T04:20:01.757Z,12.43
2019-05-21T04:22:28.102Z,12.64
2019-05-21T04:24:54.398Z,12.68
2019-05-21T04:27:20.745Z,12.77
2019-05-21T04:29:47.052Z,12.89
2019-05-21T04:32:13.376Z,12.94
2019-05-21T04:34:39.686Z,12.93
2019-05-21T04:37:11.035Z,12.81
2019-05-21T04:39:32.347Z,12.85
2019-05-21T04:41:58.650Z,13.23
2019-05-21T04:44:24.976Z,13.57
2019-05-21T04:46:51.313Z,13.94
2019-05-21T04:49:17.646Z,14.15
2019-05-21T04:51:43.979Z,14.36
2019-05-21T04:54:10.295Z,14.51
2019-05-21T04:56:36.605Z,14.53
2019-05-21T04:59:02.925Z,14.59
2019-05-21T05:01:29.249Z,14.88
2019-05-21T05:03:55.558Z,15.42
2019-05-21T05:06:21.925Z,15.91
2019-05-21T05:08:48.233Z,16.14
2019-05-21T05:11:14.561Z,16.14
2019-05-21T05:13:40.866Z,16.42
2019-05-21T05:16:07.193Z,16.72
2019-05-21T05:18:33.519Z,16.99
2019-05-21T05:20:59.828Z,18.41
2019-05-21T05:23:26.159Z,20.63
2019-05-21T05:25:52.510Z,21.31
2019-05-21T05:28:18.829Z,21.11
2019-05-21T05:30:45.163Z,20.72
2019-05-21T05:33:11.475Z,19.46
2019-05-21T05:35:37.843Z,20.17
2019-05-21T05:38:04.175Z,20.66
2019-05-21T05:40:30.479Z,21.06
2019-05-21T05:42:56.802Z,21.99
2019-05-21T05:45:23.126Z,22.65
2019-05-21T05:47:49.500Z,22.69
2019-05-21T05:50:15.809Z,22.76
2019-05-21T05:52:42.168Z,22.76
2019-05-21T05:55:08.447Z,23.23
2019-05-21T05:57:34.782Z,23.94
2019-05-21T06:00:01.114Z,23.66
2019-05-21T06:02:27.418Z,22.33
2019-05-21T06:04:53.760Z,21.49
2019-05-21T06:07:20.092Z,22.19
2019-05-21T06:09:46.389Z,22.77
2019-05-21T06:12:12.723Z,22.71
2019-05-21T06:14:39.036Z,22.96
2019-05-21T06:17:05.350Z,23.14
2019-05-21T06:19:31.697Z,23.13
2019-05-21T06:21:57.998Z,22.29
2019-05-21T06:24:24.330Z,22.62
2019-05-21T06:26:50.745Z,22.84
2019-05-21T06:29:17.081Z,23.24
2019-05-21T06:31:43.383Z,23.29
2019-05-21T06:34:09.711Z,22.88
2019-05-21T06:36:36.401Z,22.65
2019-05-21T06:39:02.710Z,22.43
2019-05-21T06:41:29.224Z,22.82
2019-05-21T06:43:55.537Z,23.09
2019-05-21T06:46:21.860Z,23.32
2019-05-21T06:48:48.201Z,22.48
2019-05-21T06:51:14.498Z,23.01
2019-05-21T06:53:40.829Z,23.36
2019-05-21T06:56:07.833Z,23.11
2019-05-21T06:58:33.493Z,22.77
2019-05-21T07:00:59.865Z,22.75
2019-05-21T07:03:26.167Z,23.09
2019-05-21T07:05:59.010Z,23.29
2019-05-21T07:08:33.589Z,23.11
2019-05-21T07:10:45.212Z,23.02
2019-05-21T07:13:11.518Z,23.01
2019-05-21T07:15:37.834Z,22.90
2019-05-21T07:18:04.168Z,23.30
2019-05-21T07:20:30.472Z,23.54
2019-05-21T07:22:56.822Z,23.59
2019-05-21T07:25:23.156Z,23.26
2019-05-21T07:27:49.488Z,23.50
2019-05-21T07:30:15.794Z,23.75
2019-05-21T07:32:42.222Z,24.13
2019-05-21T07:35:08.552Z,24.22
2019-05-21T07:37:34.847Z,24.09
2019-05-21T07:40:01.265Z,22.31
2019-05-21T07:42:27.587Z,22.64
2019-05-21T07:44:54.047Z,23.46
2019-05-21T07:47:20.347Z,23.74
2019-05-21T07:49:46.675Z,22.46
2019-05-21T07:52:12.985Z,22.60
2019-05-21T07:54:39.303Z,22.64
2019-05-21T07:57:05.659Z,22.58
2019-05-21T07:59:31.964Z,22.90
2019-05-21T08:01:58.323Z,23.58
2019-05-21T08:04:24.653Z,22.47
2019-05-21T08:06:50.980Z,20.85
2019-05-21T08:09:17.282Z,21.02
2019-05-21T08:11:46.687Z,21.95
2019-05-21T08:14:09.896Z,22.95
2019-05-21T08:16:36.233Z,22.84
2019-05-21T08:19:02.541Z,21.64
2019-05-21T08:21:28.873Z,21.49
2019-05-21T08:23:55.190Z,21.63
2019-05-21T08:26:21.572Z,21.11
2019-05-21T08:28:47.904Z,20.62
2019-05-21T08:31:14.263Z,20.52
2019-05-21T08:33:40.558Z,20.46
2019-05-21T08:36:06.882Z,20.84
2019-05-21T08:38:33.279Z,20.73
2019-05-21T08:40:59.589Z,20.43
2019-05-21T08:43:25.923Z,20.24
2019-05-21T08:45:52.234Z,21.24
2019-05-21T08:48:18.570Z,22.53
2019-05-21T08:50:44.899Z,23.09
2019-05-21T08:53:11.454Z,21.59
2019-05-21T08:55:37.592Z,21.39
2019-05-21T08:58:07.450Z,20.73
2019-05-21T09:00:30.241Z,19.81
2019-05-21T09:02:56.543Z,19.69
2019-05-21T09:05:22.907Z,19.76
2019-05-21T09:07:53.395Z,20.10
2019-05-21T09:10:15.505Z,20.59
2019-05-21T09:12:41.843Z,21.38
2019-05-21T09:15:08.152Z,20.78
2019-05-21T09:17:34.475Z,21.01
2019-05-21T09:20:00.792Z,22.08
2019-05-21T09:22:27.099Z,22.40
2019-05-21T09:24:53.429Z,23.69
2019-05-21T09:27:19.736Z,24.19
2019-05-21T09:29:46.053Z,21.85
2019-05-21T09:32:12.448Z,20.67
2019-05-21T09:34:48.064Z,20.20
2019-05-21T09:37:18.450Z,20.25
2019-05-21T09:39:31.389Z,20.91
2019-05-21T09:41:57.715Z,21.98
2019-05-21T09:44:24.035Z,23.18
2019-05-21T09:46:50.389Z,22.67
2019-05-21T09:49:16.695Z,22.15
2019-05-21T09:51:43.015Z,21.69
2019-05-21T09:54:09.345Z,21.52
2019-05-21T09:56:35.653Z,21.14
2019-05-21T09:59:01.979Z,20.90
2019-05-21T10:01:28.309Z,21.71
2019-05-21T10:03:54.639Z,23.23
2019-05-21T10:06:20.958Z,24.79
2019-05-21T10:08:47.271Z,25.47
2019-05-21T10:11:13.597Z,25.54
2019-05-21T10:13:39.906Z,26.54
2019-05-21T10:16:06.237Z,26.99
2019-05-21T10:18:32.547Z,27.16
2019-05-21T10:20:58.888Z,26.99
2019-05-21T10:23:31.031Z,26.63
2019-05-21T10:25:57.341Z,24.62
2019-05-21T10:28:23.650Z,23.31
2019-05-21T10:30:49.956Z,24.06
2019-05-21T10:33:16.286Z,23.90
2019-05-21T10:35:42.591Z,24.84
2019-05-21T10:38:08.925Z,24.48
2019-05-21T10:40:35.262Z,24.56
2019-05-21T10:43:01.567Z,25.38
2019-05-21T10:45:27.893Z,24.87
2019-05-21T10:47:54.196Z,25.09
2019-05-21T10:50:20.507Z,24.78
2019-05-21T10:52:46.844Z,24.15
2019-05-21T10:55:16.027Z,25.00
2019-05-21T10:57:39.652Z,25.43
2019-05-21T11:00:06.046Z,24.17
2019-05-21T11:02:32.372Z,24.46
2019-05-21T11:04:58.680Z,24.29
2019-05-21T11:07:25.023Z,24.67
2019-05-21T11:09:51.336Z,25.51
2019-05-21T11:12:17.655Z,25.12
2019-05-21T11:14:43.996Z,24.98
2019-05-21T11:17:10.285Z,25.08
2019-05-21T11:19:36.589Z,24.69
2019-05-21T11:22:02.921Z,24.11
2019-05-21T11:24:29.224Z,23.18
2019-05-21T11:26:55.550Z,23.44
2019-05-21T11:29:21.882Z,24.04
2019-05-21T11:31:57.128Z,24.27
2019-05-21T11:34:14.516Z,23.94
2019-05-21T11:36:40.854Z,22.72
2019-05-21T11:39:07.181Z,21.25
2019-05-21T11:41:33.486Z,20.21
2019-05-21T11:43:59.810Z,19.68
2019-05-21T11:46:26.112Z,19.56
2019-05-21T11:48:52.415Z,19.48
2019-05-21T11:51:18.764Z,20.05
2019-05-21T11:53:45.062Z,20.51
2019-05-21T11:56:11.395Z,20.75
2019-05-21T11:58:39.752Z,21.14
2019-05-21T12:01:04.044Z,20.87
2019-05-21T12:03:30.376Z,20.56
2019-05-21T12:05:56.696Z,19.99
2019-05-21T12:08:23.009Z,19.96
2019-05-21T12:10:49.341Z,19.93
2019-05-21T12:13:20.036Z,19.97
2019-05-21T12:15:42.200Z,20.10
2019-05-21T12:18:08.509Z,20.04
2019-05-21T12:20:37.099Z,19.82
2019-05-21T12:23:01.165Z,19.57
2019-05-21T12:25:27.508Z,20.29
2019-05-21T12:27:53.812Z,20.59
2019-05-21T12:30:20.123Z,20.48
2019-05-21T12:32:46.452Z,20.82
2019-05-21T12:35:12.754Z,20.67
2019-05-21T12:37:39.091Z,20.46
2019-05-21T12:40:05.393Z,20.50
2019-05-21T12:42:31.727Z,20.37
2019-05-21T12:44:58.039Z,20.55
2019-05-21T12:47:24.367Z,20.70
2019-05-21T12:49:50.706Z,20.71
2019-05-21T12:52:17.005Z,20.49
2019-05-21T12:54:43.324Z,20.43
2019-05-21T12:57:09.639Z,20.53
2019-05-21T12:59:35.977Z,20.99
2019-05-21T13:02:02.286Z,21.12
2019-05-21T13:04:28.610Z,21.20
2019-05-21T13:06:54.950Z,21.09
2019-05-21T13:09:32.301Z,20.84
2019-05-21T13:11:47.597Z,20.84
2019-05-21T13:14:18.286Z,20.86
2019-05-21T13:16:40.227Z,20.89
2019-05-21T13:19:11.004Z,20.62
2019-05-21T13:21:32.889Z,20.21
2019-05-21T13:23:59.208Z,20.14
2019-05-21T13:26:25.544Z,19.92
2019-05-21T13:28:51.847Z,19.67
2019-05-21T13:31:18.192Z,19.46
2019-05-21T13:33:44.506Z,19.29
2019-05-21T13:36:10.926Z,19.27
2019-05-21T13:38:37.193Z,19.37
2019-05-21T13:41:03.507Z,19.63
2019-05-21T13:43:29.847Z,20.03
2019-05-21T13:45:56.174Z,20.38
2019-05-21T13:48:22.495Z,20.42
2019-05-21T13:50:48.798Z,20.42
2019-05-21T13:53:15.136Z,20.50
2019-05-21T13:55:41.445Z,20.31
2019-05-21T13:58:07.779Z,20.09
2019-05-21T14:00:34.197Z,20.11
2019-05-21T14:03:00.523Z,20.26
2019-05-21T14:05:26.852Z,20.34
2019-05-21T14:07:53.157Z,20.42
2019-05-21T14:10:21.586Z,20.33
2019-05-21T14:12:45.792Z,20.27
2019-05-21T14:15:12.132Z,20.29
2019-05-21T14:17:38.433Z,20.33
2019-05-21T14:20:04.769Z,20.10
2019-05-21T14:22:31.081Z,20.16
2019-05-21T14:24:57.392Z,20.44
2019-05-21T14:27:23.735Z,20.62
2019-05-21T14:29:50.041Z,20.77
2019-05-21T14:32:16.369Z,20.87
2019-05-21T14:34:42.704Z,21.00
2019-05-21T14:37:09.005Z,20.95
2019-05-21T14:39:35.342Z,20.46
2019-05-21T14:42:01.665Z,20.20
2019-05-21T14:44:27.972Z,20.02
2019-05-21T14:46:54.302Z,20.09
2019-05-21T14:49:20.633Z,20.20
2019-05-21T14:51:46.959Z,20.21
2019-05-21T14:54:26.310Z,20.07
2019-05-21T14:56:39.599Z,19.86
2019-05-21T14:59:05.993Z,19.70
2019-05-21T15:01:32.313Z,19.62
2019-05-21T15:03:58.782Z,19.58
2019-05-21T15:06:25.006Z,19.49
2019-05-21T15:08:51.461Z,19.34
2019-05-21T15:11:17.764Z,19.28
2019-05-21T15:13:44.253Z,19.33
2019-05-21T15:16:10.561Z,19.41
2019-05-21T15:18:36.917Z,19.42
2019-05-21T15:21:03.332Z,19.46
2019-05-21T15:23:29.524Z,19.44
2019-05-21T15:25:55.853Z,19.29
2019-05-21T15:28:22.205Z,19.07
2019-05-21T15:30:48.541Z,19.02
2019-05-21T15:33:14.848Z,18.99
2019-05-21T15:35:41.234Z,19.03
2019-05-21T15:38:07.614Z,19.11
2019-05-21T15:40:33.938Z,19.15
2019-05-21T15:43:00.272Z,19.16
2019-05-21T15:45:26.579Z,19.19
2019-05-21T15:47:52.905Z,19.13
2019-05-21T15:50:19.210Z,19.05
2019-05-21T15:52:45.524Z,19.07
2019-05-21T15:55:11.850Z,19.13
2019-05-21T15:57:38.263Z,19.18
2019-05-21T16:00:04.655Z,19.16
2019-05-21T16:02:30.999Z,19.01
2019-05-21T16:04:57.300Z,18.91
2019-05-21T16:07:23.636Z,18.91
2019-05-21T16:09:49.947Z,18.88
2019-05-21T16:12:16.281Z,18.68
2019-05-21T16:14:42.734Z,18.61
2019-05-21T16:17:09.127Z,18.61
2019-05-21T16:19:35.387Z,18.58
2019-05-21T16:22:01.690Z,18.58
2019-05-21T16:24:28.026Z,18.55
2019-05-21T16:26:54.336Z,18.49
2019-05-21T16:29:20.707Z,18.54
2019-05-21T16:31:47.027Z,18.59
2019-05-21T16:34:13.334Z,18.62
2019-05-21T16:36:39.660Z,18.68
2019-05-21T16:39:05.966Z,18.72
2019-05-21T16:41:44.372Z,18.75
2019-05-21T16:43:58.860Z,18.79
2019-05-21T16:46:25.165Z,18.78
2019-05-21T16:48:51.511Z,18.79
2019-05-21T16:51:17.812Z,18.70
2019-05-21T16:53:44.148Z,18.63
2019-05-21T16:56:10.476Z,18.53
2019-05-21T16:58:36.835Z,18.43
2019-05-21T17:01:03.195Z,18.40
2019-05-21T17:03:29.588Z,18.35
2019-05-21T17:05:55.925Z,18.32
2019-05-21T17:08:22.226Z,18.30
2019-05-21T17:10:48.552Z,18.27
2019-05-21T17:13:14.892Z,18.27
2019-05-21T17:15:41.200Z,18.25
2019-05-21T17:18:07.538Z,18.27
2019-05-21T17:20:34.520Z,18.29
2019-05-21T17:23:00.260Z,18.26
2019-05-21T17:25:26.649Z,18.21
2019-05-21T17:27:52.970Z,18.17
2019-05-21T17:30:19.296Z,18.15
2019-05-21T17:32:45.809Z,18.15
2019-05-21T17:35:12.130Z,18.12
2019-05-21T17:37:38.450Z,18.10
2019-05-21T17:40:04.754Z,18.05
2019-05-21T17:42:31.084Z,17.98
2019-05-21T17:44:57.399Z,17.94
2019-05-21T17:47:23.721Z,17.90
2019-05-21T17:49:50.039Z,17.84
2019-05-21T17:52:16.359Z,17.81
2019-05-21T17:54:55.683Z,17.79
2019-05-21T17:57:08.997Z,17.76
2019-05-21T17:59:35.323Z,17.76
2019-05-21T18:02:01.629Z,17.79
2019-05-21T18:04:27.958Z,17.80
2019-05-21T18:06:54.265Z,17.77
2019-05-21T18:09:20.601Z,17.75
2019-05-21T18:11:46.943Z,17.73
2019-05-21T18:14:13.364Z,17.71
2019-05-21T18:16:39.799Z,17.65
2019-05-21T18:19:08.402Z,17.64
2019-05-21T18:21:32.420Z,17.61
2019-05-21T18:23:58.752Z,17.55
2019-05-21T18:26:25.089Z,17.52
2019-05-21T18:28:51.419Z,17.50
2019-05-21T18:31:17.721Z,17.41
2019-05-21T18:33:44.052Z,17.35
2019-05-21T18:36:10.352Z,17.34
2019-05-21T18:38:36.664Z,17.31
2019-05-21T18:41:02.996Z,17.29
2019-05-21T18:43:29.298Z,17.26
2019-05-21T18:45:55.623Z,17.19
2019-05-21T18:48:21.957Z,17.14
2019-05-21T18:50:48.293Z,17.10
2019-05-21T18:53:14.603Z,17.06
2019-05-21T18:55:40.925Z,17.01
2019-05-21T18:58:08.215Z,16.95
2019-05-21T19:00:34.518Z,16.95
2019-05-21T19:03:00.847Z,17.01
2019-05-21T19:05:27.151Z,17.35
2019-05-21T19:07:53.495Z,17.29
2019-05-21T19:10:19.803Z,16.99
2019-05-21T19:12:46.132Z,16.78
2019-05-21T19:15:12.443Z,16.65
2019-05-21T19:17:38.752Z,16.63
2019-05-21T19:20:05.097Z,16.55
2019-05-21T19:22:31.396Z,16.47
2019-05-21T19:24:57.799Z,16.41
2019-05-21T19:27:24.115Z,16.37
2019-05-21T19:29:50.463Z,16.26
2019-05-21T19:32:16.787Z,16.22
2019-05-21T19:34:43.123Z,16.20
2019-05-21T19:37:09.468Z,16.14
2019-05-21T19:39:35.786Z,16.10
2019-05-21T19:42:02.114Z,16.04
2019-05-21T19:44:28.439Z,16.01
2019-05-21T19:46:54.752Z,16.02
2019-05-21T19:49:21.096Z,16.07
2019-05-21T19:51:47.416Z,16.04
2019-05-21T19:54:13.756Z,15.99
2019-05-21T19:56:40.106Z,15.88
2019-05-21T19:59:06.457Z,15.82
2019-05-21T20:01:32.787Z,15.80
2019-05-21T20:03:59.086Z,15.80
2019-05-21T20:06:25.425Z,15.79
2019-05-21T20:08:51.745Z,15.76
2019-05-21T20:11:18.075Z,15.75
2019-05-21T20:13:44.400Z,15.71
2019-05-21T20:16:10.715Z,15.64
2019-05-21T20:18:37.063Z,15.61
2019-05-21T20:21:03.386Z,15.59
2019-05-21T20:23:29.731Z,15.55
2019-05-21T20:25:57.067Z,15.45
2019-05-21T20:28:22.401Z,15.36
2019-05-21T20:30:48.721Z,15.29
2019-05-21T20:33:15.119Z,15.23
2019-05-21T20:35:41.405Z,15.14
2019-05-21T20:38:07.719Z,15.07
2019-05-21T20:40:34.066Z,14.95
2019-05-21T20:43:00.389Z,14.96
2019-05-21T20:45:26.741Z,14.97
2019-05-21T20:47:53.041Z,14.85
2019-05-21T20:50:19.386Z,14.82
2019-05-21T20:52:45.713Z,14.78
2019-05-21T20:55:12.034Z,14.75
2019-05-21T20:57:38.373Z,14.73
2019-05-21T21:00:04.681Z,14.70
2019-05-21T21:02:31.006Z,14.65
2019-05-21T21:04:57.349Z,14.62
2019-05-21T21:07:23.653Z,14.65
2019-05-21T21:09:49.983Z,14.61
2019-05-21T21:12:16.284Z,14.55
2019-05-21T21:14:42.599Z,14.57
2019-05-21T21:17:08.923Z,14.76
2019-05-21T21:19:35.228Z,14.70
2019-05-21T21:22:01.556Z,14.68
2019-05-21T21:24:27.871Z,14.68
2019-05-21T21:26:54.189Z,14.72
2019-05-21T21:29:20.502Z,14.73
2019-05-21T21:31:46.827Z,14.81
2019-05-21T21:34:13.153Z,14.77
2019-05-21T21:36:39.460Z,14.68
2019-05-21T21:39:05.789Z,14.65
2019-05-21T21:41:32.095Z,14.59
2019-05-21T21:43:58.483Z,14.51
2019-05-21T21:46:24.751Z,14.40
2019-05-21T21:48:51.062Z,14.32
2019-05-21T21:51:17.388Z,14.47
2019-05-21T21:53:43.718Z,14.45
2019-05-21T21:56:10.023Z,14.48
2019-05-21T21:58:36.383Z,14.53
2019-05-21T22:01:02.692Z,14.63
2019-05-21T22:03:29.022Z,14.67
2019-05-21T22:05:55.362Z,14.69
2019-05-21T22:08:21.668Z,14.70
2019-05-21T22:10:47.986Z,14.68
2019-05-21T22:13:14.319Z,14.58
2019-05-21T22:15:40.638Z,14.67
2019-05-21T22:18:06.954Z,14.52
2019-05-21T22:20:33.281Z,14.26
2019-05-21T22:22:59.622Z,14.17
2019-05-21T22:25:25.968Z,14.13
2019-05-21T22:27:52.304Z,14.08
2019-05-21T22:30:18.635Z,14.04
2019-05-21T22:32:44.959Z,14.04
2019-05-21T22:35:11.303Z,14.13
2019-05-21T22:37:37.630Z,14.11
2019-05-21T22:40:04.001Z,14.11
2019-05-21T22:42:30.291Z,14.12
2019-05-21T22:45:07.584Z,14.00
2019-05-21T22:47:22.965Z,13.91
2019-05-21T22:49:49.302Z,13.86
2019-05-21T22:52:15.664Z,13.98
2019-05-21T22:54:41.975Z,14.06
2019-05-21T22:57:08.294Z,14.08
2019-05-21T22:59:34.618Z,14.15
2019-05-21T23:02:00.930Z,14.20
2019-05-21T23:04:27.327Z,14.19
2019-05-21T23:06:53.588Z,14.13
2019-05-21T23:09:19.914Z,14.15
2019-05-21T23:11:46.242Z,14.17
2019-05-21T23:14:12.569Z,14.16
2019-05-21T23:16:38.886Z,14.17
2019-05-21T23:19:05.207Z,13.99
2019-05-21T23:21:31.537Z,13.85
2019-05-21T23:23:57.861Z,13.86
2019-05-21T23:26:24.184Z,13.93
2019-05-21T23:28:50.539Z,14.04
2019-05-21T23:31:16.865Z,14.05
2019-05-21T23:33:43.196Z,13.84
2019-05-21T23:36:09.515Z,13.66
2019-05-21T23:38:35.838Z,13.63
2019-05-21T23:41:02.164Z,13.70
2019-05-21T23:43:28.488Z,13.71
2019-05-21T23:45:54.838Z,13.59
2019-05-21T23:48:21.164Z,13.46
2019-05-21T23:50:47.494Z,13.42
2019-05-21T23:53:13.814Z,13.49
2019-05-21T23:55:40.149Z,13.58
2019-05-21T23:58:06.467Z,13.39
